Time;durP1;ratioP1;P1;durP2;ratioP2;P2;SDS_P1;SDS_P2;PMS_P1;PMS_P2;Temp;Humidity;BMP_temperature;BMP_pressure;BME280_temperature;BME280_humidity;BME280_pressure;Samples;Min_cycle;Max_cycle;Signal;HPM_P1;HPM_P2
2024/03/06 00:00:34;;;;;;;18.40;13.37;;;5.20;99.90;;;-141.84;74.28;18243.16;5069896;28;20278;-59
2024/03/06 00:03:03;;;;;;;18.53;11.40;;;5.20;99.90;;;-141.84;74.37;18249.25;5069603;28;20693;-60
2024/03/06 00:05:31;;;;;;;16.10;12.67;;;5.20;99.90;;;-141.84;75.43;18277.69;5070298;28;20193;-61
2024/03/06 00:08:00;;;;;;;17.67;12.30;;;5.20;99.90;;;-141.84;75.09;18298.00;5070390;28;20287;-60
2024/03/06 00:10:28;;;;;;;14.83;11.80;;;5.20;99.90;;;-141.84;73.36;18196.41;5064971;28;20645;-60
2024/03/06 00:12:58;;;;;;;18.10;12.93;;;5.20;99.90;;;-141.84;73.71;18210.63;5069470;28;20235;-60
2024/03/06 00:15:27;;;;;;;18.47;13.20;;;5.30;99.90;;;-141.84;73.25;18196.41;5069300;28;20263;-59
2024/03/06 00:17:55;;;;;;;17.70;11.90;;;5.30;99.90;;;-141.84;73.48;18210.63;5069743;28;20216;-59
2024/03/06 00:20:24;;;;;;;19.37;12.30;;;5.30;99.90;;;-141.84;73.51;18220.78;5069412;28;20197;-60
2024/03/06 00:22:52;;;;;;;15.53;12.00;;;5.20;99.90;;;-141.84;73.50;18239.09;5069184;28;20266;-60
2024/03/06 00:25:20;;;;;;;15.80;12.00;;;5.20;99.90;;;-141.84;73.99;18230.94;5069384;28;20220;-59
2024/03/06 00:27:48;;;;;;;16.20;12.30;;;5.20;99.90;;;-141.84;74.65;18310.19;5069602;28;20281;-59
2024/03/06 00:30:18;;;;;;;16.70;12.07;;;5.20;99.90;;;-141.84;74.75;18267.53;5068985;28;20643;-59
2024/03/06 00:32:46;;;;;;;18.20;12.33;;;5.10;99.90;;;-141.84;74.37;18261.44;5069335;28;20248;-59
2024/03/06 00:35:15;;;;;;;17.13;11.77;;;5.20;99.90;;;-141.84;75.66;18287.84;5069687;28;20244;-59
2024/03/06 00:37:43;;;;;;;16.83;12.37;;;5.10;99.90;;;-141.84;76.79;18411.75;5069773;28;20220;-59
2024/03/06 00:40:13;;;;;;;16.67;12.77;;;5.00;99.90;;;-141.84;77.88;18503.19;5017468;28;20311;-59
2024/03/06 00:42:42;;;;;;;16.83;12.37;;;4.80;99.90;;;-141.84;77.68;18495.06;5067519;28;20742;-61
2024/03/06 00:45:10;;;;;;;18.03;12.40;;;4.70;99.90;;;-141.84;78.80;18673.84;5069280;28;20274;-59
2024/03/06 00:47:40;;;;;;;14.77;11.70;;;4.60;99.90;;;-141.84;79.93;18909.53;5061132;28;20627;-60
2024/03/06 00:50:09;;;;;;;16.43;12.00;;;4.50;99.90;;;-141.84;81.04;19490.72;5069597;28;20271;-59
2024/03/06 00:52:38;;;;;;;17.47;12.20;;;4.40;99.90;;;-141.84;81.38;19673.59;5069686;28;20290;-60
2024/03/06 00:55:07;;;;;;;18.00;12.73;;;4.40;99.90;;;-141.84;82.42;20838.28;5069520;28;20220;-59
2024/03/06 00:57:35;;;;;;;17.07;12.73;;;4.10;99.90;;;-141.84;82.07;20586.22;5068947;28;20347;-59
2024/03/06 01:00:10;;;;;;;19.80;12.53;;;4.20;99.90;;;-141.84;80.94;19651.25;5066891;28;20307;-60
2024/03/06 01:02:40;;;;;;;18.63;12.70;;;4.20;99.90;;;-141.84;80.04;18917.66;5069614;28;20191;-60
2024/03/06 01:05:09;;;;;;;17.63;12.37;;;4.20;99.90;;;-141.84;80.18;18972.53;5069457;28;20201;-60
2024/03/06 01:07:39;;;;;;;18.83;12.07;;;4.20;99.90;;;-141.84;81.95;19882.94;5061224;28;20277;-60
2024/03/06 01:10:11;;;;;;;17.10;13.23;;;;;;;-141.84;82.07;20519.13;5068502;28;20296;-59
2024/03/06 01:12:40;;;;;;;19.37;12.90;;;;;;;-141.84;81.73;19872.78;5069130;28;20258;-60
2024/03/06 01:15:09;;;;;;;19.83;13.50;;;;;;;-141.84;80.94;19383.00;5068462;28;20883;-59
2024/03/06 01:17:39;;;;;;;18.60;13.47;;;;;;;-141.84;79.46;18679.94;5069206;28;20232;-58
2024/03/06 01:20:09;;;;;;;18.30;13.10;;;;;;;-141.84;79.07;18592.59;5069049;28;20204;-60
2024/03/06 01:22:38;;;;;;;18.47;13.63;;;4.20;99.90;;;-141.84;76.99;18289.88;5069045;28;20231;-59
2024/03/06 01:25:08;;;;;;;20.47;13.10;;;4.20;99.90;;;-141.84;77.69;18338.63;5068636;28;20230;-59
2024/03/06 01:27:36;;;;;;;16.63;12.63;;;4.10;99.90;;;-141.84;77.95;18342.69;5060433;28;20975;-59
2024/03/06 01:30:07;;;;;;;16.47;13.33;;;4.00;99.90;;;-141.84;79.00;18484.91;5068596;28;20263;-60
2024/03/06 01:32:35;;;;;;;19.67;13.43;;;3.90;99.90;;;-141.84;80.36;18793.72;5065736;28;20230;-59
2024/03/06 01:35:07;;;;;;;20.23;13.83;;;3.80;99.90;;;-141.84;80.44;19005.03;5068678;28;20211;-60
2024/03/06 01:37:35;;;;;;;20.37;15.03;;;3.80;99.90;;;-141.84;79.66;18690.09;5068550;28;20227;-59
2024/03/06 01:40:05;;;;;;;19.07;14.00;;;3.80;99.90;;;-141.84;79.88;18742.94;5068037;28;20237;-60
2024/03/06 01:42:33;;;;;;;18.93;13.77;;;3.80;99.90;;;-141.84;81.02;19220.44;5068685;28;20223;-60
2024/03/06 01:45:03;;;;;;;17.07;13.17;;;3.70;99.90;;;-141.84;82.05;19876.84;5069454;28;20228;-60
2024/03/06 01:47:31;;;;;;;23.00;14.83;;;3.60;99.90;;;-141.84;80.97;19346.44;5068384;28;20203;-60
2024/03/06 01:50:00;;;;;;;20.50;14.23;;;3.70;99.90;;;-141.84;81.03;19171.66;5069106;28;20356;-60
2024/03/06 01:52:30;;;;;;;19.40;13.93;;;3.70;99.90;;;-141.84;81.82;19724.41;5072046;28;20226;-60
2024/03/06 01:54:59;;;;;;;20.37;15.03;;;3.70;99.90;;;-141.84;82.21;20074.00;5064246;28;20230;-60
2024/03/06 01:57:27;;;;;;;19.23;15.43;;;3.50;99.90;;;-141.84;83.26;21958.56;5072042;28;20591;-60
2024/03/06 01:59:55;;;;;;;21.97;15.43;;;3.60;99.90;;;-141.84;83.10;21277.41;5072433;28;20251;-62
2024/03/06 02:02:24;;;;;;;20.37;15.50;;;3.50;99.90;;;-141.84;82.26;20277.25;5072942;28;20192;-59
2024/03/06 02:04:54;;;;;;;19.93;14.87;;;3.50;99.90;;;-141.84;81.04;19139.16;5072105;28;20310;-60
2024/03/06 02:07:25;;;;;;;23.77;15.53;;;3.60;99.90;;;-141.84;82.10;19830.09;5072080;28;20219;-60
2024/03/06 02:09:54;;;;;;;22.53;15.30;;;3.60;99.90;;;-141.84;84.07;23014.09;5071583;28;20220;-59
2024/03/06 02:12:23;;;;;;;20.37;14.93;;;3.50;99.90;;;-141.84;84.77;26390.00;5072238;28;20220;-60
2024/03/06 02:14:51;;;;;;;23.83;15.77;;;3.40;99.90;;;-141.84;83.20;22306.31;5071781;28;20646;-59
2024/03/06 02:17:19;;;;;;;20.30;14.83;;;3.50;99.90;;;-141.84;82.60;20399.19;5072231;28;20330;-59
2024/03/06 02:19:48;;;;;;;22.87;14.80;;;3.50;99.90;;;-141.84;83.15;21704.38;5071761;28;20283;-60
2024/03/06 02:22:18;;;;;;;22.47;14.57;;;3.50;99.90;;;-141.84;85.22;26622.09;5071593;28;20226;-60
2024/03/06 02:24:49;;;;;;;20.17;15.10;;;3.40;99.90;;;-141.84;86.76;35453.63;5071929;28;20229;-60
2024/03/06 02:27:17;;;;;;;24.43;15.77;;;3.40;99.90;;;-141.84;86.60;36427.09;5071820;28;20230;-60
2024/03/06 02:29:46;;;;;;;23.43;15.83;;;3.30;99.90;;;-141.84;87.52;41302.00;5072110;28;20273;-61
2024/03/06 02:32:14;;;;;;;22.57;15.23;;;3.30;99.90;;;-141.84;87.34;41040.44;5071919;28;20196;-59
2024/03/06 02:34:43;;;;;;;24.17;15.70;;;3.30;99.90;;;-141.84;87.37;41040.44;5070875;28;20281;-60
2024/03/06 02:37:12;;;;;;;25.70;16.37;;;3.20;99.90;;;-141.84;87.14;42610.09;5071044;28;20749;-61
2024/03/06 02:39:42;;;;;;;21.63;14.80;;;3.20;99.90;;;-141.84;85.19;27385.63;5071584;28;20228;-59
2024/03/06 02:42:10;;;;;;;23.83;15.83;;;3.30;99.90;;;-141.84;84.99;26483.66;5071725;28;20313;-58
2024/03/06 02:44:39;;;;;;;22.47;15.23;;;;;;;-141.84;85.86;30321.03;5072272;28;20202;-60
2024/03/06 02:47:07;;;;;;;21.37;15.03;;;3.20;99.90;;;-141.84;86.80;37053.72;5072017;28;20193;-59
2024/03/06 02:49:38;;;;;;;22.77;16.47;;;;;;;-141.84;87.73;45227.56;5071046;28;20234;-59
2024/03/06 02:52:07;;;;;;;22.60;15.67;;;;;;;-141.84;84.22;24847.19;5071246;28;20224;-60
2024/03/06 02:54:35;;;;;;;20.47;14.77;;;3.30;99.90;;;-141.84;85.73;28735.94;5070806;28;20760;-59
2024/03/06 02:57:07;;;;;;;20.63;15.30;;;;;;;-141.84;87.08;38742.28;5070968;28;20351;-60
2024/03/06 02:59:35;;;;;;;25.80;15.80;;;;;;;-141.84;89.26;51516.59;5071500;28;20195;-59
2024/03/06 03:02:04;;;;;;;21.33;15.47;;;;;;;-141.84;88.09;48894.97;5071218;28;20238;-61
2024/03/06 03:04:33;;;;;;;26.90;16.60;;;;;;;-141.84;88.36;47584.78;5070536;28;20224;-60
2024/03/06 03:07:01;;;;;;;24.67;15.77;;;3.20;99.90;;;-141.84;89.41;53352.78;5071009;28;20211;-59
2024/03/06 03:09:29;;;;;;;21.03;15.13;;;3.10;99.90;;;-141.84;89.17;51778.88;5070697;28;20327;-60
2024/03/06 03:11:59;;;;;;;24.60;16.47;;;3.00;99.90;;;-141.84;90.87;59917.56;5070735;28;20224;-59
2024/03/06 03:14:28;;;;;;;21.70;16.30;;;2.90;99.90;;;-141.84;91.76;65703.56;5071051;28;20607;-59
2024/03/06 03:16:56;;;;;;;24.67;15.53;;;2.90;99.90;;;-141.84;92.35;67283.00;5070756;28;20256;-59
2024/03/06 03:19:25;;;;;;;25.27;15.80;;;2.70;99.90;;;-141.84;93.81;73607.09;5070841;28;20223;-60
2024/03/06 03:21:53;;;;;;;21.80;15.90;;;2.70;99.90;;;-141.84;92.21;70180.31;5070354;28;20226;-59
2024/03/06 03:24:21;;;;;;;20.63;16.07;;;2.80;99.90;;;-141.84;87.53;45489.41;5062419;28;20227;-59
2024/03/06 03:26:50;;;;;;;26.87;16.70;;;2.90;99.90;;;-141.84;88.85;49419.16;5070376;28;20301;-59
2024/03/06 03:29:18;;;;;;;22.93;15.93;;;3.00;99.90;;;-141.84;91.26;61494.72;5070984;28;20671;-59
2024/03/06 03:31:48;;;;;;;24.27;16.23;;;2.90;99.90;;;-141.84;91.89;66229.97;5069873;28;20242;-60
2024/03/06 03:34:16;;;;;;;22.73;15.97;;;2.80;99.90;;;-141.84;92.94;70970.84;5071296;28;20220;-60
2024/03/06 03:36:45;;;;;;;23.17;16.90;;;;;;;-141.84;92.79;71497.94;5070062;28;20700;-60
2024/03/06 03:39:16;;;;;;;25.03;16.67;;;2.80;99.90;;;-141.84;91.14;63598.59;5070263;28;20278;-60
2024/03/06 03:41:45;;;;;;;25.20;16.70;;;2.80;99.90;;;-141.84;91.50;64124.72;5069163;28;20197;-59
2024/03/06 03:44:15;;;;;;;22.33;16.13;;;;;;;-141.84;93.54;71234.38;5070592;28;20225;-61
2024/03/06 03:46:44;;;;;;;23.57;16.63;;;2.70;99.90;;;-141.84;94.74;76508.97;5069935;28;20214;-60
2024/03/06 03:49:14;;;;;;;21.20;16.20;;;2.60;99.90;;;-141.84;95.58;79941.19;5070025;28;20272;-59
2024/03/06 03:51:43;;;;;;;23.50;17.17;;;2.60;99.90;;;-141.84;97.02;84433.91;5061647;28;20228;-60
2024/03/06 03:54:11;;;;;;;23.53;15.90;;;2.50;99.90;;;-141.84;97.49;86285.31;5070091;28;20216;-60
2024/03/06 03:56:39;;;;;;;28.47;18.00;;;2.50;99.90;;;-141.84;97.20;85756.25;5069744;28;20231;-59
2024/03/06 03:59:08;;;;;;;25.10;17.30;;;2.50;99.90;;;-141.84;98.57;88931.63;5070548;28;20227;-59
2024/03/06 04:01:36;;;;;;;25.23;17.73;;;2.40;99.90;;;-141.84;99.72;92109.53;5069894;28;20227;-60
2024/03/06 04:04:05;;;;;;;26.03;16.97;;;2.40;99.90;;;-141.84;99.80;93434.41;5069297;28;20224;-59
2024/03/06 04:06:36;;;;;;;29.13;19.23;;;2.40;99.90;;;-141.84;99.45;92639.44;5069624;28;20216;-58
2024/03/06 04:09:05;;;;;;;25.37;17.77;;;2.40;99.90;;;-141.84;99.32;91844.63;5069216;28;20302;-61
2024/03/06 04:11:35;;;;;;;23.30;16.33;;;2.40;99.90;;;-141.84;99.45;92109.53;5069726;28;20216;-59
2024/03/06 04:14:04;;;;;;;26.23;17.63;;;2.40;99.90;;;-141.84;100.00;95024.81;5069731;28;20298;-59
2024/03/06 04:16:32;;;;;;;27.87;17.40;;;2.40;99.90;;;-141.84;99.02;91844.63;5069559;28;20233;-59
2024/03/06 04:19:01;;;;;;;25.83;17.63;;;2.50;99.90;;;-141.84;98.68;89990.66;5069255;28;20231;-59
2024/03/06 04:21:30;;;;;;;27.40;18.00;;;2.40;99.90;;;-141.84;97.12;86020.75;5069573;28;20230;-61
2024/03/06 04:23:59;;;;;;;24.90;17.20;;;2.50;99.90;;;-141.84;96.34;83112.00;5069244;28;20520;-61
2024/03/06 04:26:27;;;;;;;25.97;17.87;;;2.50;99.90;;;-141.84;97.71;86285.31;5061626;28;20718;-60
2024/03/06 04:28:56;;;;;;;25.80;18.47;;;2.40;99.90;;;-141.84;98.99;90520.28;5069366;28;20235;-58
2024/03/06 04:31:24;;;;;;;25.33;17.73;;;2.40;99.90;;;-141.84;99.39;92374.47;5069465;28;20588;-59
2024/03/06 04:33:53;;;;;;;25.43;17.60;;;2.30;99.90;;;-141.84;98.03;88931.63;5069044;28;20216;-59
2024/03/06 04:36:21;;;;;;;26.67;18.20;;;2.40;99.90;;;-141.84;97.48;86814.44;5069393;28;20217;-59
2024/03/06 04:38:49;;;;;;;25.77;17.27;;;2.40;99.90;;;-141.84;98.90;89990.66;5069116;28;20312;-60
2024/03/06 04:41:21;;;;;;;25.00;17.73;;;2.30;99.90;;;-141.84;100.00;93699.44;5070215;28;20270;-59
2024/03/06 04:43:50;;;;;;;26.87;18.00;;;2.30;99.90;;;-141.84;100.00;95024.81;5069478;28;20277;-60
2024/03/06 04:46:19;;;;;;;26.70;18.00;;;2.20;99.90;;;-141.84;100.00;94229.53;5069247;28;20943;-62
2024/03/06 04:48:48;;;;;;;26.33;18.53;;;2.20;99.90;;;-141.84;99.91;93434.41;5069620;28;20236;-59
2024/03/06 04:51:20;;;;;;;27.50;18.00;;;;;;;-141.84;98.87;91314.81;5069601;28;20273;-60
2024/03/06 04:53:50;;;;;;;29.43;19.23;;;;;;;-141.84;97.62;87872.91;5061639;28;20540;-60
2024/03/06 04:56:20;;;;;;;27.50;18.90;;;;;;;-141.84;97.65;86814.44;5070707;28;20224;-60
2024/03/06 04:58:51;;;;;;;26.60;18.03;;;;;;;-141.84;96.14;82583.34;5069031;28;20232;-59
2024/03/06 05:01:19;;;;;;;29.60;18.90;;;2.20;99.90;;;-141.84;97.73;85227.25;5069604;28;20223;-60
2024/03/06 05:03:49;;;;;;;26.70;18.77;;;2.20;99.90;;;-141.84;97.42;86285.31;5069249;28;20236;-59
2024/03/06 05:06:35;;;;;;;27.10;18.77;;;2.20;99.90;;;-141.84;97.19;85227.25;5062847;28;20710;-59
2024/03/06 05:09:20;;;;;;;28.33;18.90;;;2.10;99.90;;;-141.84;97.93;87343.63;5068779;28;20242;-60
2024/03/06 05:12:09;;;;;;;27.43;17.93;;;2.10;99.90;;;-141.84;99.41;90785.09;5069209;28;20673;-60
2024/03/06 05:14:56;;;;;;;26.63;17.87;;;2.00;99.90;;;-141.84;100.00;92904.41;5062045;28;20223;-60
2024/03/06 05:17:43;;;;;;;28.03;19.63;;;2.00;99.90;;;-141.84;100.00;95024.81;5068805;28;20219;-62
2024/03/06 05:20:31;;;;;;;27.30;18.57;;;1.90;99.90;;;-141.84;100.00;96881.06;5069361;28;20226;-59
2024/03/06 05:23:17;;;;;;;28.83;19.17;;;1.90;99.90;;;-141.84;100.00;96085.44;5061547;28;20184;-59
2024/03/06 05:26:03;;;;;;;28.90;19.77;;;1.90;99.90;;;-141.84;100.00;93434.41;5072240;28;20216;-60
2024/03/06 05:28:50;;;;;;;27.97;19.17;;;2.00;99.90;;;-141.84;98.22;90520.28;5073204;28;20827;-60
2024/03/06 05:31:35;;;;;;;30.73;19.03;;;2.00;99.90;;;-141.84;99.30;89990.66;5064946;28;20734;-60
2024/03/06 05:34:21;;;;;;;31.03;19.63;;;1.90;99.90;;;-141.84;100.00;95289.94;5073008;28;20633;-60
2024/03/06 05:37:07;;;;;;;25.90;18.63;;;1.90;99.90;;;-141.84;100.00;95024.81;5066901;28;20223;-60
2024/03/06 05:39:54;;;;;;;26.47;18.40;;;1.90;99.90;;;-141.84;100.00;95289.94;5072573;28;20236;-59
2024/03/06 05:42:39;;;;;;;26.53;18.70;;;1.90;99.90;;;-141.84;100.00;95820.25;5072995;28;20226;-60
2024/03/06 05:45:26;;;;;;;28.47;19.10;;;1.90;99.90;;;-141.84;100.00;95289.94;5065953;28;20227;-59
2024/03/06 05:48:12;;;;;;;28.37;18.13;;;1.90;99.90;;;-141.84;99.25;91314.81;5072870;28;20227;-59
2024/03/06 05:50:58;;;;;;;27.17;18.43;;;1.90;99.90;;;-141.84;98.74;89990.66;5073022;28;20301;-60
2024/03/06 05:53:44;;;;;;;27.60;18.20;;;1.90;99.90;;;-141.84;97.58;87608.25;5064473;28;20195;-60
2024/03/06 05:56:30;;;;;;;28.07;18.37;;;1.90;99.90;;;-141.84;99.13;89725.88;5072523;28;20719;-59
2024/03/06 05:59:15;;;;;;;26.43;17.00;;;1.80;99.90;;;-141.84;100.00;92374.47;5066952;28;20208;-60
2024/03/06 06:01:45;;;;;;;23.80;16.43;;;1.90;99.90;;;-141.84;100.00;95289.94;5072424;28;20250;-58
2024/03/06 06:04:15;;;;;;;26.90;18.83;;;1.80;99.90;;;-141.84;100.00;97676.88;5065424;28;20274;-58
2024/03/06 06:06:43;;;;;;;27.00;18.67;;;1.80;99.90;;;-141.84;100.00;95024.81;5073278;28;20307;-59
2024/03/06 06:09:15;;;;;;;26.13;18.17;;;1.90;99.90;;;-141.84;100.00;95024.81;5073722;28;20228;-59
2024/03/06 06:11:44;;;;;;;31.23;18.70;;;1.90;99.90;;;-141.84;98.49;90785.09;5073608;28;20418;-60
2024/03/06 06:14:13;;;;;;;26.67;17.97;;;2.00;99.90;;;-141.84;97.87;88137.56;5038329;28;20197;-60
2024/03/06 06:16:43;;;;;;;28.13;19.13;;;2.00;99.90;;;-141.84;97.24;85227.25;5073913;28;20228;-63
2024/03/06 06:19:13;;;;;;;30.33;18.40;;;2.00;99.90;;;-141.84;97.07;85227.25;5073465;28;20604;-64
2024/03/06 06:21:41;;;;;;;27.10;18.33;;;2.00;99.90;;;-141.84;97.40;86549.84;5073133;28;20311;-64
2024/03/06 06:24:09;;;;;;;30.53;18.43;;;2.00;99.90;;;-141.84;96.66;84169.50;5073561;28;20661;-62
2024/03/06 06:26:38;;;;;;;25.87;17.93;;;2.00;99.90;;;-141.84;95.95;81790.53;5073669;28;20193;-63
2024/03/06 06:29:08;;;;;;;29.00;19.50;;;2.10;99.90;;;-141.84;94.97;79412.97;5072941;28;20657;-63
2024/03/06 06:31:36;;;;;;;28.83;18.47;;;2.20;99.90;;;-141.84;91.55;65703.56;5065838;28;20225;-63
2024/03/06 06:34:04;;;;;;;26.13;17.10;;;2.30;99.90;;;-141.84;90.68;59917.56;5073514;28;20248;-63
2024/03/06 06:36:34;;;;;;;26.33;18.30;;;2.20;99.90;;;-141.84;91.39;63861.66;5071427;28;20270;-62
2024/03/06 06:39:05;;;;;;;32.97;19.63;;;2.20;99.90;;;-141.84;91.35;62283.53;5071829;28;20227;-64
2024/03/06 06:41:34;;;;;;;23.67;17.63;;;2.20;99.90;;;-141.84;92.46;67019.72;5072051;28;20292;-63
2024/03/06 06:44:03;;;;;;;26.53;18.40;;;2.10;99.90;;;-141.84;93.48;72816.03;5072307;28;20220;-64
2024/03/06 06:46:31;;;;;;;28.63;19.10;;;2.10;99.90;;;-141.84;93.28;72025.13;5071853;28;20311;-64
2024/03/06 06:48:59;;;;;;;26.03;18.40;;;2.20;99.90;;;-141.84;92.56;70970.84;5071283;28;20270;-63
2024/03/06 06:51:31;;;;;;;29.40;19.53;;;2.30;99.90;;;-141.84;91.68;65440.38;5071520;28;20280;-63
2024/03/06 06:54:01;;;;;;;28.93;18.97;;;2.30;99.90;;;-141.84;91.89;66229.97;5071980;28;20278;-64
2024/03/06 06:56:29;;;;;;;26.13;18.53;;;2.40;99.90;;;-141.84;91.16;63861.66;5071406;28;20560;-63
2024/03/06 06:58:57;;;;;;;25.33;17.97;;;2.40;99.90;;;-141.84;90.18;58603.75;5071712;28;20223;-63
2024/03/06 07:01:27;;;;;;;26.90;18.33;;;2.50;99.90;;;-141.84;88.42;48108.81;5071287;28;20221;-64
2024/03/06 07:03:55;;;;;;;29.03;19.77;;;2.60;99.90;;;-141.84;88.79;50992.13;5070679;28;20286;-63
2024/03/06 07:06:24;;;;;;;27.70;18.57;;;2.70;99.90;;;-141.84;88.75;50205.56;5071101;28;20553;-64
2024/03/06 07:08:52;;;;;;;26.80;18.00;;;2.70;99.90;;;-141.84;86.09;34078.56;5071080;28;20224;-63
2024/03/06 07:11:22;;;;;;;24.80;17.90;;;2.90;99.90;;;-141.84;86.56;36582.19;5071061;28;20193;-63
2024/03/06 07:13:51;;;;;;;29.27;19.50;;;2.90;99.90;;;-141.84;85.42;28874.44;5071536;28;20228;-64
2024/03/06 07:16:20;;;;;;;27.17;19.17;;;3.10;99.90;;;-141.84;83.50;23591.78;5069977;28;20224;-64
2024/03/06 07:18:48;;;;;;;27.23;18.57;;;3.20;99.90;;;-141.84;82.58;20200.00;5071771;28;20237;-63
2024/03/06 07:21:17;;;;;;;27.03;18.13;;;3.20;99.90;;;-141.84;81.20;19210.28;5070792;28;20244;-64
2024/03/06 07:23:46;;;;;;;27.33;18.73;;;3.30;99.90;;;-141.84;80.03;18584.47;5071987;28;20251;-63
2024/03/06 07:26:15;;;;;;;27.93;18.33;;;3.30;99.90;;;-141.84;79.29;18399.56;5062995;28;20201;-63
2024/03/06 07:28:45;;;;;;;26.00;18.63;;;3.50;99.90;;;-141.84;79.65;18511.31;5071638;28;20235;-63
2024/03/06 07:31:14;;;;;;;27.03;18.10;;;3.50;99.90;;;-141.84;79.58;18474.75;5070235;28;20219;-63
2024/03/06 07:33:42;;;;;;;24.97;17.93;;;3.60;99.90;;;-141.84;79.82;18621.03;5070148;28;20235;-63
2024/03/06 07:36:10;;;;;;;26.07;19.07;;;3.70;99.90;;;-141.84;78.85;18428.03;5072480;28;20223;-63
2024/03/06 07:38:38;;;;;;;27.97;18.47;;;3.70;99.90;;;-141.84;78.20;18302.06;5072508;28;20563;-63
2024/03/06 07:41:07;;;;;;;25.50;18.87;;;3.80;99.90;;;-141.84;77.08;18159.84;5071727;28;20734;-63
2024/03/06 07:43:35;;;;;;;26.70;19.03;;;3.90;99.90;;;-141.84;76.84;18159.84;5070010;28;20276;-62
2024/03/06 07:46:10;;;;;;;28.07;18.57;;;3.90;99.90;;;-141.84;75.96;18127.34;5069543;28;20228;-64
2024/03/06 07:48:38;;;;;;;28.83;19.63;;;4.10;99.90;;;-141.84;75.92;18084.69;5065795;28;20219;-64
2024/03/06 07:51:08;;;;;;;28.37;18.80;;;4.10;99.90;;;-141.84;74.44;18082.66;5069559;28;20831;-63
2024/03/06 07:53:37;;;;;;;28.43;20.33;;;4.30;99.90;;;-141.84;73.93;18092.81;5067522;28;20655;-65
2024/03/06 07:56:06;;;;;;;31.83;21.87;;;4.10;99.90;;;-141.84;73.84;18074.53;5070437;28;20672;-64
2024/03/06 07:58:34;;;;;;;29.97;20.77;;;4.50;99.90;;;-141.84;74.17;18159.84;5034655;28;20227;-64
2024/03/06 08:01:02;;;;;;;27.63;20.20;;;4.50;99.90;;;-141.84;74.05;18094.84;5069997;28;20300;-64
2024/03/06 08:03:33;;;;;;;28.97;20.30;;;4.50;99.90;;;-141.84;73.93;18109.06;5070567;28;20486;-64
2024/03/06 08:06:02;;;;;;;28.03;20.80;;;4.60;99.90;;;-141.84;73.45;18084.69;5061407;28;20293;-64
2024/03/06 08:08:30;;;;;;;29.57;20.67;;;4.70;99.90;;;-141.84;72.88;18100.94;5070818;28;20254;-63
2024/03/06 08:11:06;;;;;;;28.33;20.70;;;4.80;99.90;;;-141.84;71.29;18090.78;5128916;27;20581;-63
2024/03/06 08:13:35;;;;;;;28.83;20.60;;;5.00;99.90;;;-141.84;71.73;18094.84;5045153;28;20236;-64
2024/03/06 08:16:03;;;;;;;28.27;21.17;;;5.10;99.90;;;-141.84;71.43;18121.25;5047699;28;20263;-64
2024/03/06 08:18:35;;;;;;;29.83;20.93;;;5.20;99.90;;;-141.84;69.88;18102.97;5045541;28;20790;-64
2024/03/06 08:21:05;;;;;;;30.73;21.43;;;5.40;99.90;;;-141.84;70.01;18127.34;5046525;28;20228;-64
2024/03/06 08:23:34;;;;;;;33.10;20.60;;;5.50;99.90;;;-141.84;70.59;18119.22;5046386;28;20276;-65
2024/03/06 08:26:02;;;;;;;29.93;20.40;;;5.40;99.90;;;-141.84;69.62;18115.16;5046482;28;20204;-60
2024/03/06 08:28:32;;;;;;;30.17;20.50;;;5.40;99.90;;;-141.84;70.06;18137.50;5042684;28;20649;-61
2024/03/06 08:31:01;;;;;;;28.17;20.53;;;5.50;99.90;;;-141.84;70.55;18147.66;5044517;28;20381;-62
2024/03/06 08:33:31;;;;;;;29.23;21.57;;;5.50;99.90;;;-141.84;69.80;18145.63;5045360;28;20217;-65
2024/03/06 08:36:00;;;;;;;29.43;22.50;;;5.60;99.90;;;-141.84;69.17;18153.75;5043885;28;20291;-68
2024/03/06 08:38:28;;;;;;;32.07;22.00;;;5.70;99.90;;;-141.84;68.70;18145.63;5047340;28;20197;-61
2024/03/06 08:40:56;;;;;;;32.00;21.43;;;5.70;99.90;;;-141.84;68.78;18151.72;5041104;28;20221;-62
2024/03/06 08:43:26;;;;;;;31.03;21.37;;;5.70;99.90;;;-141.84;69.08;18200.47;5046084;28;20251;-62
2024/03/06 08:45:55;;;;;;;30.17;20.93;;;5.70;99.90;;;-141.84;68.94;18147.66;5046963;28;20457;-62
2024/03/06 08:48:24;;;;;;;28.57;20.97;;;5.80;99.90;;;-141.84;68.84;18186.25;5046973;28;20327;-62
2024/03/06 08:50:52;;;;;;;34.93;23.00;;;5.90;99.90;;;-141.84;67.26;18139.53;5020417;28;20236;-62
2024/03/06 08:53:21;;;;;;;31.80;22.63;;;6.00;99.90;;;-141.84;66.96;18157.81;5046163;28;20227;-61
2024/03/06 08:55:51;;;;;;;31.77;21.57;;;5.90;99.90;;;-141.84;68.32;18172.03;5012358;28;20307;-60
2024/03/06 08:58:21;;;;;;;33.93;22.97;;;5.70;99.90;;;-141.84;67.97;18176.09;5062094;28;20247;-60
2024/03/06 09:00:49;;;;;;;29.90;22.60;;;5.70;99.90;;;-141.84;68.89;18170.00;5066893;28;20225;-60
2024/03/06 09:03:19;;;;;;;32.97;23.57;;;5.70;99.90;;;-141.84;69.22;18196.41;5066248;28;20217;-65
2024/03/06 09:05:48;;;;;;;35.43;23.93;;;5.80;99.90;;;-141.84;67.57;18184.22;5066308;28;20301;-66
2024/03/06 09:08:19;;;;;;;33.40;23.47;;;5.90;99.90;;;-141.84;68.08;18172.03;5058607;28;20197;-66
2024/03/06 09:10:47;;;;;;;32.23;23.13;;;5.90;99.90;;;-141.84;69.16;18188.28;5065079;28;20234;-66
2024/03/06 09:13:15;;;;;;;35.47;22.87;;;5.90;99.90;;;-141.84;68.66;18192.34;5066827;28;20686;-63
2024/03/06 09:15:43;;;;;;;33.43;23.43;;;6.00;99.90;;;-141.84;68.54;18190.31;5066040;28;20276;-61
2024/03/06 09:18:12;;;;;;;34.43;24.30;;;5.90;99.90;;;-141.84;67.75;18182.19;5066461;28;20323;-57
2024/03/06 09:20:43;;;;;;;36.13;24.37;;;6.10;99.90;;;-141.84;66.96;18178.13;5064408;28;20198;-58
2024/03/06 09:23:11;;;;;;;35.60;23.67;;;6.20;99.90;;;-141.84;66.65;18196.41;5054709;28;20575;-59
2024/03/06 09:25:40;;;;;;;33.17;23.23;;;6.40;99.90;;;-141.84;67.59;18204.53;5047474;28;20241;-61
2024/03/06 09:28:08;;;;;;;33.33;23.70;;;6.40;99.90;;;-141.84;66.33;18204.53;5066617;28;20237;-61
2024/03/06 09:30:37;;;;;;;34.03;23.73;;;6.50;99.90;;;-141.84;65.71;18196.41;5053626;28;20244;-60
2024/03/06 09:33:05;;;;;;;33.57;23.93;;;6.60;99.90;;;-141.84;64.29;18239.09;5052822;28;20328;-61
2024/03/06 09:35:33;;;;;;;34.80;24.73;;;6.80;99.90;;;-141.84;64.06;18226.88;5049817;28;20271;-62
2024/03/06 09:38:07;;;;;;;34.20;24.73;;;6.80;99.90;;;-141.84;64.47;18251.28;5050087;28;20609;-62
2024/03/06 09:40:35;;;;;;;35.77;24.20;;;6.90;99.90;;;-141.84;63.95;18249.25;5054341;28;20225;-61
2024/03/06 09:43:04;;;;;;;33.37;24.03;;;7.00;99.90;;;-141.84;64.01;18255.34;5049546;28;20309;-61
2024/03/06 09:45:33;;;;;;;36.17;25.23;;;7.10;99.90;;;-141.84;63.50;18235.00;5051277;28;20279;-60
2024/03/06 09:48:01;;;;;;;34.97;25.27;;;7.20;99.90;;;-141.84;63.52;18267.53;5050205;28;20256;-60
2024/03/06 09:50:41;;;;;;;34.30;23.97;;;7.20;99.90;;;-141.84;63.62;18241.13;5048670;28;20224;-60
2024/03/06 09:53:15;;;;;;;39.20;24.90;;;7.10;99.90;;;-141.84;63.73;18261.44;5047951;28;20185;-58
2024/03/06 09:55:45;;;;;;;36.23;24.63;;;7.30;99.90;;;-141.84;63.36;18269.56;5049530;28;20225;-59
2024/03/06 09:58:13;;;;;;;34.03;24.30;;;7.40;99.90;;;-141.84;61.74;18293.94;5050163;28;20291;-59
2024/03/06 10:00:44;;;;;;;32.77;24.20;;;7.60;99.90;;;-141.84;62.25;18298.00;5050891;28;20279;-59
2024/03/06 10:03:13;;;;;;;38.00;25.13;;;7.50;99.90;;;-141.84;60.74;18275.66;5049370;28;20271;-59
2024/03/06 10:05:43;;;;;;;36.40;24.80;;;7.80;99.90;;;-141.84;60.40;18322.38;5050327;28;20197;-60
2024/03/06 10:08:16;;;;;;;34.67;24.17;;;7.80;99.90;;;-141.84;59.84;18334.56;5040877;28;20203;-60
2024/03/06 10:10:45;;;;;;;35.33;24.67;;;7.80;99.90;;;-141.84;60.53;18300.03;5047739;28;20249;-59
2024/03/06 10:13:24;;;;;;;35.40;24.20;;;7.80;99.90;;;-141.84;60.00;18306.13;5048570;28;20236;-59
2024/03/06 10:16:00;;;;;;;34.67;24.63;;;7.90;99.90;;;-141.84;59.86;18316.28;5013256;28;20235;-59